sensor_id;sensor_type;location;lat;lon;timestamp;pressure;altitude;pressure_sealevel;temperature;humidity
77041;BME280;65974;42.664;23.264;2024-02-26T00:02:22;93934.72;;;6.99;93.51
77041;BME280;65974;42.664;23.264;2024-02-26T00:04:48;93937.34;;;6.96;93.16
77041;BME280;65974;42.664;23.264;2024-02-26T00:07:13;93947.56;;;6.97;92.04
77041;BME280;65974;42.664;23.264;2024-02-26T00:09:39;93935.06;;;6.94;92.26
77041;BME280;65974;42.664;23.264;2024-02-26T00:12:04;93932.81;;;6.96;92.17
77041;BME280;65974;42.664;23.264;2024-02-26T00:14:31;93933.50;;;6.90;92.81
77041;BME280;65974;42.664;23.264;2024-02-26T00:16:57;93934.66;;;6.92;92.89
77041;BME280;65974;42.664;23.264;2024-02-26T00:19:23;93931.22;;;6.88;94.99
77041;BME280;65974;42.664;23.264;2024-02-26T00:21:49;93927.78;;;6.84;95.96
77041;BME280;65974;42.664;23.264;2024-02-26T00:24:14;93931.69;;;6.97;95.74
77041;BME280;65974;42.664;23.264;2024-02-26T00:26:40;93927.97;;;7.05;95.09
77041;BME280;65974;42.664;23.264;2024-02-26T00:29:05;93922.72;;;7.09;95.42
77041;BME280;65974;42.664;23.264;2024-02-26T00:31:31;93924.19;;;7.07;94.34
77041;BME280;65974;42.664;23.264;2024-02-26T00:33:56;93925.38;;;7.13;93.67
77041;BME280;65974;42.664;23.264;2024-02-26T00:36:22;93920.13;;;7.20;92.80
77041;BME280;65974;42.664;23.264;2024-02-26T00:38:48;93909.19;;;7.25;93.11
77041;BME280;65974;42.664;23.264;2024-02-26T00:41:20;93915.97;;;7.19;93.61
77041;BME280;65974;42.664;23.264;2024-02-26T00:43:46;93907.22;;;7.11;94.01
77041;BME280;65974;42.664;23.264;2024-02-26T00:46:12;93912.50;;;7.11;94.59
77041;BME280;65974;42.664;23.264;2024-02-26T00:48:38;93908.72;;;7.09;93.69
77041;BME280;65974;42.664;23.264;2024-02-26T00:51:04;93904.19;;;7.09;93.93
77041;BME280;65974;42.664;23.264;2024-02-26T00:53:33;93895.50;;;7.16;93.50
77041;BME280;65974;42.664;23.264;2024-02-26T00:55:59;93902.31;;;7.17;93.39
77041;BME280;65974;42.664;23.264;2024-02-26T00:58:25;93894.38;;;7.13;92.71
77041;BME280;65974;42.664;23.264;2024-02-26T01:00:51;93887.53;;;7.12;92.44
77041;BME280;65974;42.664;23.264;2024-02-26T01:03:19;93900.00;;;7.12;92.74
77041;BME280;65974;42.664;23.264;2024-02-26T01:05:45;93898.47;;;7.07;92.83
77041;BME280;65974;42.664;23.264;2024-02-26T01:08:11;93892.44;;;7.07;93.53
77041;BME280;65974;42.664;23.264;2024-02-26T01:10:37;93889.47;;;7.15;93.07
77041;BME280;65974;42.664;23.264;2024-02-26T01:13:04;93890.19;;;7.12;93.69
77041;BME280;65974;42.664;23.264;2024-02-26T01:15:30;93890.97;;;7.13;93.63
77041;BME280;65974;42.664;23.264;2024-02-26T01:17:55;93892.50;;;7.21;94.29
77041;BME280;65974;42.664;23.264;2024-02-26T01:20:21;93884.91;;;7.16;93.76
77041;BME280;65974;42.664;23.264;2024-02-26T01:22:46;93882.69;;;7.21;93.32
77041;BME280;65974;42.664;23.264;2024-02-26T01:25:12;93889.16;;;7.24;93.14
77041;BME280;65974;42.664;23.264;2024-02-26T01:27:38;93886.50;;;7.24;93.81
77041;BME280;65974;42.664;23.264;2024-02-26T01:30:04;93886.09;;;7.22;94.28
77041;BME280;65974;42.664;23.264;2024-02-26T01:32:30;93886.13;;;7.29;94.04
77041;BME280;65974;42.664;23.264;2024-02-26T01:34:56;93882.00;;;7.31;93.58
77041;BME280;65974;42.664;23.264;2024-02-26T01:37:23;93880.50;;;7.34;93.44
77041;BME280;65974;42.664;23.264;2024-02-26T01:39:49;93884.69;;;7.38;93.21
77041;BME280;65974;42.664;23.264;2024-02-26T01:42:14;93883.91;;;7.34;94.06
77041;BME280;65974;42.664;23.264;2024-02-26T01:44:40;93879.69;;;7.26;94.38
77041;BME280;65974;42.664;23.264;2024-02-26T01:47:07;93884.25;;;7.29;94.93
77041;BME280;65974;42.664;23.264;2024-02-26T01:49:35;93875.25;;;7.41;93.56
77041;BME280;65974;42.664;23.264;2024-02-26T01:52:02;93876.03;;;7.45;93.72
77041;BME280;65974;42.664;23.264;2024-02-26T01:54:29;93874.44;;;7.33;94.79
77041;BME280;65974;42.664;23.264;2024-02-26T01:56:56;93875.19;;;7.34;95.27
77041;BME280;65974;42.664;23.264;2024-02-26T01:59:24;93871.00;;;7.33;94.76
77041;BME280;65974;42.664;23.264;2024-02-26T02:04:20;93872.50;;;7.27;95.02
77041;BME280;65974;42.664;23.264;2024-02-26T02:06:48;93868.31;;;7.22;95.33
77041;BME280;65974;42.664;23.264;2024-02-26T02:09:14;93877.44;;;7.28;95.22
77041;BME280;65974;42.664;23.264;2024-02-26T02:11:39;93875.91;;;7.24;95.75
77041;BME280;65974;42.664;23.264;2024-02-26T02:14:05;93873.66;;;7.26;95.66
77041;BME280;65974;42.664;23.264;2024-02-26T02:16:33;93867.25;;;7.30;95.93
77041;BME280;65974;42.664;23.264;2024-02-26T02:18:59;93861.13;;;7.23;95.66
77041;BME280;65974;42.664;23.264;2024-02-26T02:21:25;93863.81;;;7.30;95.56
77041;BME280;65974;42.664;23.264;2024-02-26T02:23:52;93869.16;;;7.37;95.65
77041;BME280;65974;42.664;23.264;2024-02-26T02:26:19;93865.03;;;7.46;95.01
77041;BME280;65974;42.664;23.264;2024-02-26T02:28:46;93866.09;;;7.35;95.62
77041;BME280;65974;42.664;23.264;2024-02-26T02:31:13;93859.34;;;7.41;95.50
77041;BME280;65974;42.664;23.264;2024-02-26T02:33:38;93859.69;;;7.39;95.42
77041;BME280;65974;42.664;23.264;2024-02-26T02:36:04;93860.84;;;7.42;95.58
77041;BME280;65974;42.664;23.264;2024-02-26T02:38:34;93861.63;;;7.46;95.17
77041;BME280;65974;42.664;23.264;2024-02-26T02:41:00;93875.25;;;7.41;95.63
77041;BME280;65974;42.664;23.264;2024-02-26T02:43:25;93866.88;;;7.35;96.37
77041;BME280;65974;42.664;23.264;2024-02-26T02:45:51;93865.00;;;7.36;96.47
77041;BME280;65974;42.664;23.264;2024-02-26T02:48:18;93868.75;;;7.35;96.14
77041;BME280;65974;42.664;23.264;2024-02-26T02:50:43;93869.22;;;7.47;95.79
77041;BME280;65974;42.664;23.264;2024-02-26T02:53:10;93878.28;;;7.46;95.60
77041;BME280;65974;42.664;23.264;2024-02-26T02:55:36;93893.81;;;7.44;95.62
77041;BME280;65974;42.664;23.264;2024-02-26T02:58:02;93886.63;;;7.45;96.24
77041;BME280;65974;42.664;23.264;2024-02-26T03:00:27;93884.31;;;7.43;95.91
77041;BME280;65974;42.664;23.264;2024-02-26T03:02:53;93866.94;;;7.46;95.72
77041;BME280;65974;42.664;23.264;2024-02-26T03:05:18;93877.50;;;7.39;96.48
77041;BME280;65974;42.664;23.264;2024-02-26T03:07:44;93874.06;;;7.35;96.24
77041;BME280;65974;42.664;23.264;2024-02-26T03:10:11;93883.53;;;7.36;96.79
77041;BME280;65974;42.664;23.264;2024-02-26T03:12:37;93882.06;;;7.45;96.64
77041;BME280;65974;42.664;23.264;2024-02-26T03:15:05;93882.81;;;7.42;96.45
77041;BME280;65974;42.664;23.264;2024-02-26T03:17:32;93876.75;;;7.45;96.57
77041;BME280;65974;42.664;23.264;2024-02-26T03:19:59;93880.56;;;7.44;96.84
77041;BME280;65974;42.664;23.264;2024-02-26T03:22:24;93878.66;;;7.45;96.74
77041;BME280;65974;42.664;23.264;2024-02-26T03:24:50;93872.22;;;7.46;96.29
77041;BME280;65974;42.664;23.264;2024-02-26T03:27:16;93863.91;;;7.44;96.65
77041;BME280;65974;42.664;23.264;2024-02-26T03:29:42;93865.78;;;7.43;96.37
77041;BME280;65974;42.664;23.264;2024-02-26T03:32:07;93861.25;;;7.44;97.00
77041;BME280;65974;42.664;23.264;2024-02-26T03:34:33;93859.69;;;7.39;97.14
77041;BME280;65974;42.664;23.264;2024-02-26T03:37:04;93852.47;;;7.33;96.92
77041;BME280;65974;42.664;23.264;2024-02-26T03:39:30;93850.97;;;7.32;97.10
77041;BME280;65974;42.664;23.264;2024-02-26T03:41:55;93854.41;;;7.36;97.24
77041;BME280;65974;42.664;23.264;2024-02-26T03:44:21;93860.41;;;7.33;97.20
77041;BME280;65974;42.664;23.264;2024-02-26T03:46:47;93848.34;;;7.35;96.95
77041;BME280;65974;42.664;23.264;2024-02-26T03:49:12;93857.44;;;7.34;97.84
77041;BME280;65974;42.664;23.264;2024-02-26T03:51:39;93848.75;;;7.41;97.55
77041;BME280;65974;42.664;23.264;2024-02-26T03:54:04;93841.94;;;7.40;97.20
77041;BME280;65974;42.664;23.264;2024-02-26T03:56:30;93851.41;;;7.44;96.74
77041;BME280;65974;42.664;23.264;2024-02-26T03:58:56;93849.06;;;7.29;97.14
77041;BME280;65974;42.664;23.264;2024-02-26T04:01:21;93854.00;;;7.30;98.02
77041;BME280;65974;42.664;23.264;2024-02-26T04:03:47;93841.91;;;7.36;97.59
77041;BME280;65974;42.664;23.264;2024-02-26T04:06:13;93840.75;;;7.34;97.88
77041;BME280;65974;42.664;23.264;2024-02-26T04:08:45;93843.78;;;7.32;97.51
77041;BME280;65974;42.664;23.264;2024-02-26T04:11:11;93841.88;;;7.33;97.88
77041;BME280;65974;42.664;23.264;2024-02-26T04:13:36;93844.13;;;7.27;97.91
77041;BME280;65974;42.664;23.264;2024-02-26T04:16:05;93841.81;;;7.22;97.96
77041;BME280;65974;42.664;23.264;2024-02-26T04:18:31;93830.94;;;7.34;97.62
77041;BME280;65974;42.664;23.264;2024-02-26T04:20:57;93830.94;;;7.38;97.58
77041;BME280;65974;42.664;23.264;2024-02-26T04:23:24;93827.13;;;7.32;97.65
77041;BME280;65974;42.664;23.264;2024-02-26T04:25:49;93833.94;;;7.33;97.35
77041;BME280;65974;42.664;23.264;2024-02-26T04:28:15;93836.59;;;7.33;96.67
77041;BME280;65974;42.664;23.264;2024-02-26T04:30:41;93837.72;;;7.32;95.90
77041;BME280;65974;42.664;23.264;2024-02-26T04:33:06;93826.75;;;7.30;96.64
77041;BME280;65974;42.664;23.264;2024-02-26T04:35:32;93827.13;;;7.35;96.18
77041;BME280;65974;42.664;23.264;2024-02-26T04:37:58;93829.06;;;7.42;96.39
77041;BME280;65974;42.664;23.264;2024-02-26T04:40:24;93833.22;;;7.39;96.64
77041;BME280;65974;42.664;23.264;2024-02-26T04:42:49;93833.59;;;7.38;96.58
77041;BME280;65974;42.664;23.264;2024-02-26T04:45:15;93845.28;;;7.33;96.63
77041;BME280;65974;42.664;23.264;2024-02-26T04:47:41;93834.69;;;7.33;96.69
77041;BME280;65974;42.664;23.264;2024-02-26T04:50:06;93828.25;;;7.27;97.44
77041;BME280;65974;42.664;23.264;2024-02-26T04:52:32;93837.69;;;7.25;97.42
77041;BME280;65974;42.664;23.264;2024-02-26T04:54:57;93847.50;;;7.24;96.89
77041;BME280;65974;42.664;23.264;2024-02-26T04:57:26;93850.53;;;7.23;97.23
77041;BME280;65974;42.664;23.264;2024-02-26T04:59:51;93853.19;;;7.23;96.63
77041;BME280;65974;42.664;23.264;2024-02-26T05:02:17;93847.88;;;7.23;96.20
77041;BME280;65974;42.664;23.264;2024-02-26T05:04:44;93852.41;;;7.19;96.52
77041;BME280;65974;42.664;23.264;2024-02-26T05:07:09;93861.50;;;7.21;97.06
77041;BME280;65974;42.664;23.264;2024-02-26T05:09:36;93870.59;;;7.24;96.77
77041;BME280;65974;42.664;23.264;2024-02-26T05:12:03;93864.53;;;7.20;96.70
77041;BME280;65974;42.664;23.264;2024-02-26T05:14:29;93863.75;;;7.19;96.86
77041;BME280;65974;42.664;23.264;2024-02-26T05:16:57;93864.13;;;7.18;97.54
77041;BME280;65974;42.664;23.264;2024-02-26T05:19:23;93872.09;;;7.21;97.26
77041;BME280;65974;42.664;23.264;2024-02-26T05:21:48;93885.75;;;7.27;97.07
77041;BME280;65974;42.664;23.264;2024-02-26T05:24:16;93885.41;;;7.32;96.79
77041;BME280;65974;42.664;23.264;2024-02-26T05:26:43;93888.81;;;7.32;96.28
77041;BME280;65974;42.664;23.264;2024-02-26T05:29:08;93882.41;;;7.37;96.42
77041;BME280;65974;42.664;23.264;2024-02-26T05:31:34;93896.44;;;7.41;96.64
77041;BME280;65974;42.664;23.264;2024-02-26T05:34:01;93897.22;;;7.45;96.96
77041;BME280;65974;42.664;23.264;2024-02-26T05:36:26;93902.13;;;7.43;97.00
77041;BME280;65974;42.664;23.264;2024-02-26T05:38:54;93897.22;;;7.45;96.27
77041;BME280;65974;42.664;23.264;2024-02-26T05:41:20;93898.75;;;7.49;96.32
77041;BME280;65974;42.664;23.264;2024-02-26T05:43:54;93896.50;;;7.51;96.17
77041;BME280;65974;42.664;23.264;2024-02-26T05:46:21;93896.84;;;7.50;96.50
77041;BME280;65974;42.664;23.264;2024-02-26T05:48:48;93905.94;;;7.52;96.86
77041;BME280;65974;42.664;23.264;2024-02-26T05:51:14;93904.44;;;7.51;96.87
77041;BME280;65974;42.664;23.264;2024-02-26T05:53:41;93902.53;;;7.48;97.23
77041;BME280;65974;42.664;23.264;2024-02-26T05:56:06;93904.44;;;7.51;97.26
77041;BME280;65974;42.664;23.264;2024-02-26T05:58:33;93907.81;;;7.48;96.83
77041;BME280;65974;42.664;23.264;2024-02-26T06:00:59;93918.03;;;7.50;96.96
77041;BME280;65974;42.664;23.264;2024-02-26T06:03:26;93916.16;;;7.54;97.64
77041;BME280;65974;42.664;23.264;2024-02-26T06:05:52;93912.03;;;7.56;97.63
77041;BME280;65974;42.664;23.264;2024-02-26T06:08:18;93914.00;;;7.66;97.02
77041;BME280;65974;42.664;23.264;2024-02-26T06:10:43;93917.72;;;7.58;97.56
77041;BME280;65974;42.664;23.264;2024-02-26T06:13:10;93914.00;;;7.66;97.08
77041;BME280;65974;42.664;23.264;2024-02-26T06:15:35;93913.22;;;7.66;97.50
77041;BME280;65974;42.664;23.264;2024-02-26T06:18:03;93916.25;;;7.68;97.03
77041;BME280;65974;42.664;23.264;2024-02-26T06:20:29;93917.03;;;7.68;97.54
77041;BME280;65974;42.664;23.264;2024-02-26T06:22:55;93912.84;;;7.64;97.26
77041;BME280;65974;42.664;23.264;2024-02-26T06:25:20;93918.53;;;7.66;97.73
77041;BME280;65974;42.664;23.264;2024-02-26T06:27:46;93920.47;;;7.72;97.12
77041;BME280;65974;42.664;23.264;2024-02-26T06:30:11;93911.78;;;7.79;97.26
77041;BME280;65974;42.664;23.264;2024-02-26T06:32:37;93918.59;;;7.80;96.98
77041;BME280;65974;42.664;23.264;2024-02-26T06:35:04;93919.38;;;7.84;96.90
77041;BME280;65974;42.664;23.264;2024-02-26T06:37:34;93918.97;;;7.82;96.42
77041;BME280;65974;42.664;23.264;2024-02-26T06:40:00;93914.84;;;7.88;96.69
77041;BME280;65974;42.664;23.264;2024-02-26T06:42:26;93922.41;;;7.86;96.49
77041;BME280;65974;42.664;23.264;2024-02-26T06:44:52;93919.41;;;7.91;96.92
77041;BME280;65974;42.664;23.264;2024-02-26T06:47:17;93919.78;;;7.93;96.51
77041;BME280;65974;42.664;23.264;2024-02-26T06:49:43;93924.38;;;8.00;96.45
77041;BME280;65974;42.664;23.264;2024-02-26T06:52:09;93931.22;;;8.04;96.35
77041;BME280;65974;42.664;23.264;2024-02-26T06:54:36;93925.53;;;8.06;95.96
77041;BME280;65974;42.664;23.264;2024-02-26T06:57:03;93919.44;;;8.02;96.38
77041;BME280;65974;42.664;23.264;2024-02-26T06:59:28;93926.63;;;8.01;96.15
77041;BME280;65974;42.664;23.264;2024-02-26T07:01:55;93927.03;;;8.03;96.14
77041;BME280;65974;42.664;23.264;2024-02-26T07:04:21;93927.00;;;8.00;96.47
77041;BME280;65974;42.664;23.264;2024-02-26T07:06:48;93920.94;;;7.96;96.45
77041;BME280;65974;42.664;23.264;2024-02-26T07:09:14;93924.31;;;7.89;96.71
77041;BME280;65974;42.664;23.264;2024-02-26T07:11:41;93917.09;;;7.86;97.11
77041;BME280;65974;42.664;23.264;2024-02-26T07:14:10;93930.41;;;7.93;96.93
77041;BME280;65974;42.664;23.264;2024-02-26T07:16:35;93933.03;;;7.93;96.96
77041;BME280;65974;42.664;23.264;2024-02-26T07:19:01;93938.34;;;7.93;96.54
77041;BME280;65974;42.664;23.264;2024-02-26T07:21:27;93942.91;;;7.96;96.35
77041;BME280;65974;42.664;23.264;2024-02-26T07:23:53;93942.16;;;7.96;96.25
77041;BME280;65974;42.664;23.264;2024-02-26T07:26:19;93939.88;;;7.94;96.10
77041;BME280;65974;42.664;23.264;2024-02-26T07:28:45;93939.06;;;7.90;96.25
77041;BME280;65974;42.664;23.264;2024-02-26T07:31:11;93939.13;;;7.94;96.31
77041;BME280;65974;42.664;23.264;2024-02-26T07:33:36;93936.84;;;7.99;96.64
77041;BME280;65974;42.664;23.264;2024-02-26T07:36:02;93938.41;;;8.04;96.26
77041;BME280;65974;42.664;23.264;2024-02-26T07:38:27;93934.59;;;8.01;95.80
77041;BME280;65974;42.664;23.264;2024-02-26T07:40:53;93946.72;;;8.06;95.86
77041;BME280;65974;42.664;23.264;2024-02-26T07:43:19;93942.19;;;8.06;95.06
77041;BME280;65974;42.664;23.264;2024-02-26T07:45:45;93938.78;;;8.02;95.25
77041;BME280;65974;42.664;23.264;2024-02-26T07:48:10;93941.84;;;8.11;95.22
77041;BME280;65974;42.664;23.264;2024-02-26T07:50:41;93940.31;;;8.14;95.30
77041;BME280;65974;42.664;23.264;2024-02-26T07:53:11;93931.66;;;8.24;95.17
77041;BME280;65974;42.664;23.264;2024-02-26T07:55:36;93935.06;;;8.24;94.68
77041;BME280;65974;42.664;23.264;2024-02-26T07:58:02;93935.47;;;8.26;94.20
77041;BME280;65974;42.664;23.264;2024-02-26T08:00:28;93938.53;;;8.35;93.83
77041;BME280;65974;42.664;23.264;2024-02-26T08:02:53;93937.06;;;8.45;93.74
77041;BME280;65974;42.664;23.264;2024-02-26T08:05:19;93934.03;;;8.53;92.52
77041;BME280;65974;42.664;23.264;2024-02-26T08:07:45;93923.81;;;8.59;92.55
77041;BME280;65974;42.664;23.264;2024-02-26T08:10:11;93928.72;;;8.60;91.54
77041;BME280;65974;42.664;23.264;2024-02-26T08:12:36;93924.19;;;8.65;91.16
77041;BME280;65974;42.664;23.264;2024-02-26T08:15:02;93936.34;;;8.66;90.52
77041;BME280;65974;42.664;23.264;2024-02-26T08:17:29;93927.25;;;8.74;90.20
77041;BME280;65974;42.664;23.264;2024-02-26T08:19:54;93926.09;;;8.82;90.93
77041;BME280;65974;42.664;23.264;2024-02-26T08:22:20;93927.28;;;8.91;91.38
77041;BME280;65974;42.664;23.264;2024-02-26T08:24:45;93929.94;;;9.02;91.00
77041;BME280;65974;42.664;23.264;2024-02-26T08:27:11;93937.91;;;8.98;91.41
77041;BME280;65974;42.664;23.264;2024-02-26T08:29:36;93929.94;;;9.02;91.00
77041;BME280;65974;42.664;23.264;2024-02-26T08:32:02;93929.91;;;9.05;90.92
77041;BME280;65974;42.664;23.264;2024-02-26T08:34:28;93925.00;;;9.04;90.87
77041;BME280;65974;42.664;23.264;2024-02-26T08:36:53;93936.38;;;9.01;90.66
77041;BME280;65974;42.664;23.264;2024-02-26T08:39:19;93933.34;;;9.06;91.05
77041;BME280;65974;42.664;23.264;2024-02-26T08:41:45;93930.69;;;9.06;90.08
77041;BME280;65974;42.664;23.264;2024-02-26T08:44:12;93929.19;;;9.05;90.41
77041;BME280;65974;42.664;23.264;2024-02-26T08:46:37;93926.16;;;9.03;90.24
77041;BME280;65974;42.664;23.264;2024-02-26T08:49:03;93925.75;;;9.08;90.27
77041;BME280;65974;42.664;23.264;2024-02-26T08:51:30;93927.28;;;9.12;90.85
77041;BME280;65974;42.664;23.264;2024-02-26T08:53:56;93931.84;;;9.15;90.37
77041;BME280;65974;42.664;23.264;2024-02-26T08:56:22;93929.53;;;9.31;90.37
77041;BME280;65974;42.664;23.264;2024-02-26T08:58:47;93932.19;;;9.42;90.11
77041;BME280;65974;42.664;23.264;2024-02-26T09:01:18;93922.69;;;9.45;89.47
77041;BME280;65974;42.664;23.264;2024-02-26T09:03:44;93920.03;;;9.45;89.54
77041;BME280;65974;42.664;23.264;2024-02-26T09:06:10;93923.84;;;9.40;89.08
77041;BME280;65974;42.664;23.264;2024-02-26T09:08:37;93920.78;;;9.42;89.58
77041;BME280;65974;42.664;23.264;2024-02-26T09:11:03;93913.22;;;9.47;88.30
77041;BME280;65974;42.664;23.264;2024-02-26T09:13:29;93913.56;;;9.46;88.46
77041;BME280;65974;42.664;23.264;2024-02-26T09:15:55;93915.09;;;9.47;88.09
77041;BME280;65974;42.664;23.264;2024-02-26T09:18:20;93909.75;;;9.64;88.41
77041;BME280;65974;42.664;23.264;2024-02-26T09:20:46;93904.06;;;9.62;87.71
77041;BME280;65974;42.664;23.264;2024-02-26T09:23:12;93908.97;;;9.74;88.27
77041;BME280;65974;42.664;23.264;2024-02-26T09:25:37;93912.72;;;9.84;87.23
77041;BME280;65974;42.664;23.264;2024-02-26T09:28:03;93911.94;;;9.94;86.99
77041;BME280;65974;42.664;23.264;2024-02-26T09:30:30;93908.09;;;10.12;86.34
77041;BME280;65974;42.664;23.264;2024-02-26T09:32:55;93908.44;;;10.22;85.01
77041;BME280;65974;42.664;23.264;2024-02-26T09:35:21;93905.81;;;10.14;84.27
77041;BME280;65974;42.664;23.264;2024-02-26T09:37:48;93908.81;;;10.24;84.38
77041;BME280;65974;42.664;23.264;2024-02-26T09:40:14;93903.41;;;10.38;83.36
77041;BME280;65974;42.664;23.264;2024-02-26T09:42:46;93904.56;;;10.40;84.06
77041;BME280;65974;42.664;23.264;2024-02-26T09:45:19;93896.13;;;10.49;83.19
77041;BME280;65974;42.664;23.264;2024-02-26T09:47:48;93892.28;;;10.57;82.81
77041;BME280;65974;42.664;23.264;2024-02-26T09:50:16;93892.63;;;10.62;82.70
77041;BME280;65974;42.664;23.264;2024-02-26T09:52:43;93900.91;;;10.78;82.16
77041;BME280;65974;42.664;23.264;2024-02-26T09:55:09;93894.03;;;10.81;81.80
77041;BME280;65974;42.664;23.264;2024-02-26T09:57:36;93894.69;;;10.96;81.60
77041;BME280;65974;42.664;23.264;2024-02-26T10:00:03;93881.13;;;11.24;76.89
77041;BME280;65974;42.664;23.264;2024-02-26T10:02:33;93883.50;;;11.55;75.04
77041;BME280;65974;42.664;23.264;2024-02-26T10:05:02;93884.13;;;11.70;73.84
77041;BME280;65974;42.664;23.264;2024-02-26T10:07:30;93881.78;;;11.76;72.98
77041;BME280;65974;42.664;23.264;2024-02-26T10:09:57;93868.03;;;11.81;72.05
77041;BME280;65974;42.664;23.264;2024-02-26T10:12:23;93874.75;;;11.92;71.07
77041;BME280;65974;42.664;23.264;2024-02-26T10:14:51;93876.25;;;11.97;72.03
77041;BME280;65974;42.664;23.264;2024-02-26T10:17:16;93869.94;;;12.10;72.82
77041;BME280;65974;42.664;23.264;2024-02-26T10:19:46;93864.63;;;12.10;70.89
77041;BME280;65974;42.664;23.264;2024-02-26T10:22:13;93863.38;;;12.18;70.81
77041;BME280;65974;42.664;23.264;2024-02-26T10:24:38;93860.31;;;12.20;70.57
77041;BME280;65974;42.664;23.264;2024-02-26T10:27:04;93858.34;;;12.24;69.90
77041;BME280;65974;42.664;23.264;2024-02-26T10:29:31;93846.06;;;12.30;69.75
77041;BME280;65974;42.664;23.264;2024-02-26T10:31:56;93842.50;;;12.40;70.01
77041;BME280;65974;42.664;23.264;2024-02-26T10:34:23;93849.38;;;12.37;69.54
77041;BME280;65974;42.664;23.264;2024-02-26T10:36:49;93841.00;;;12.39;69.44
77041;BME280;65974;42.664;23.264;2024-02-26T10:39:15;93830.19;;;12.46;68.20
77041;BME280;65974;42.664;23.264;2024-02-26T10:41:43;93829.03;;;12.47;68.01
77041;BME280;65974;42.664;23.264;2024-02-26T10:44:10;93827.50;;;12.46;68.30
77041;BME280;65974;42.664;23.264;2024-02-26T10:46:40;93828.34;;;12.43;68.30
77041;BME280;65974;42.664;23.264;2024-02-26T10:49:08;93836.63;;;12.52;68.08
77041;BME280;65974;42.664;23.264;2024-02-26T10:51:37;93832.75;;;12.53;67.92
77041;BME280;65974;42.664;23.264;2024-02-26T10:54:04;93823.19;;;12.56;66.84
77041;BME280;65974;42.664;23.264;2024-02-26T10:56:33;93823.47;;;12.61;67.23
77041;BME280;65974;42.664;23.264;2024-02-26T10:59:00;93822.00;;;12.60;66.03
77041;BME280;65974;42.664;23.264;2024-02-26T11:01:27;93817.44;;;12.57;66.64
77041;BME280;65974;42.664;23.264;2024-02-26T11:03:58;93821.22;;;12.60;66.26
77041;BME280;65974;42.664;23.264;2024-02-26T11:06:27;93809.84;;;12.56;66.25
77041;BME280;65974;42.664;23.264;2024-02-26T11:08:54;93809.84;;;12.56;66.31
77041;BME280;65974;42.664;23.264;2024-02-26T11:11:23;93809.44;;;12.57;65.79
77041;BME280;65974;42.664;23.264;2024-02-26T11:13:50;93818.97;;;12.58;66.11
77041;BME280;65974;42.664;23.264;2024-02-26T11:16:21;93814.78;;;12.57;65.82
77041;BME280;65974;42.664;23.264;2024-02-26T11:18:48;93812.84;;;12.58;65.56
77041;BME280;65974;42.664;23.264;2024-02-26T11:21:17;93815.13;;;12.59;65.58
77041;BME280;65974;42.664;23.264;2024-02-26T11:23:53;93817.97;;;12.72;64.70
77041;BME280;65974;42.664;23.264;2024-02-26T11:26:20;93812.28;;;12.70;65.04
77041;BME280;65974;42.664;23.264;2024-02-26T11:28:48;93799.69;;;12.70;64.81
77041;BME280;65974;42.664;23.264;2024-02-26T11:31:15;93807.34;;;12.68;64.51
77041;BME280;65974;42.664;23.264;2024-02-26T11:33:40;93803.47;;;12.73;65.12
77041;BME280;65974;42.664;23.264;2024-02-26T11:36:11;93808.41;;;12.74;64.72
77041;BME280;65974;42.664;23.264;2024-02-26T11:38:37;93792.69;;;12.80;64.56
77041;BME280;65974;42.664;23.264;2024-02-26T11:41:04;93799.53;;;12.81;64.88
77041;BME280;65974;42.664;23.264;2024-02-26T11:43:53;93793.75;;;12.82;64.66
77041;BME280;65974;42.664;23.264;2024-02-26T11:46:27;93789.53;;;12.85;64.36
77041;BME280;65974;42.664;23.264;2024-02-26T11:49:00;93794.00;;;12.91;64.88
77041;BME280;65974;42.664;23.264;2024-02-26T11:51:35;93791.78;;;12.86;64.72
77041;BME280;65974;42.664;23.264;2024-02-26T11:54:01;93796.25;;;12.93;64.38
77041;BME280;65974;42.664;23.264;2024-02-26T11:56:29;93789.31;;;12.99;64.57
77041;BME280;65974;42.664;23.264;2024-02-26T11:59:11;93791.84;;;13.09;63.61
77041;BME280;65974;42.664;23.264;2024-02-26T12:01:41;93791.84;;;13.09;63.33
77041;BME280;65974;42.664;23.264;2024-02-26T12:04:30;93788.81;;;13.27;63.27
77041;BME280;65974;42.664;23.264;2024-02-26T12:06:56;93799.47;;;13.50;62.69
77041;BME280;65974;42.664;23.264;2024-02-26T12:12:05;93793.78;;;13.87;60.76
77041;BME280;65974;42.664;23.264;2024-02-26T12:14:38;93799.06;;;13.91;59.79
77041;BME280;65974;42.664;23.264;2024-02-26T12:17:04;93794.22;;;13.86;59.40
77041;BME280;65974;42.664;23.264;2024-02-26T12:19:33;93791.13;;;13.68;59.44
77041;BME280;65974;42.664;23.264;2024-02-26T12:22:02;93799.50;;;13.70;59.98
77041;BME280;65974;42.664;23.264;2024-02-26T12:24:27;93793.88;;;13.64;59.71
77041;BME280;65974;42.664;23.264;2024-02-26T12:26:53;93805.69;;;13.67;59.58
77041;BME280;65974;42.664;23.264;2024-02-26T12:29:18;93804.50;;;13.68;59.69
77041;BME280;65974;42.664;23.264;2024-02-26T12:31:46;93806.84;;;13.66;59.90
77041;BME280;65974;42.664;23.264;2024-02-26T12:34:12;93808.88;;;13.78;59.52
77041;BME280;65974;42.664;23.264;2024-02-26T12:36:38;93815.84;;;13.75;59.39
77041;BME280;65974;42.664;23.264;2024-02-26T12:39:05;93803.34;;;13.69;59.25
77041;BME280;65974;42.664;23.264;2024-02-26T12:41:32;93814.19;;;13.62;59.34
77041;BME280;65974;42.664;23.264;2024-02-26T12:43:58;93812.88;;;13.70;59.21
77041;BME280;65974;42.664;23.264;2024-02-26T12:46:24;93815.50;;;13.73;58.91
77041;BME280;65974;42.664;23.264;2024-02-26T12:48:49;93810.94;;;13.70;58.68
77041;BME280;65974;42.664;23.264;2024-02-26T12:51:17;93814.31;;;13.74;58.69
77041;BME280;65974;42.664;23.264;2024-02-26T12:53:45;93810.88;;;13.74;58.63
77041;BME280;65974;42.664;23.264;2024-02-26T12:56:11;93811.16;;;13.79;58.93
77041;BME280;65974;42.664;23.264;2024-02-26T12:58:41;93801.41;;;13.89;58.19
77041;BME280;65974;42.664;23.264;2024-02-26T13:01:14;93801.56;;;13.82;58.07